KLAX/LAX METAR and TAF weather

Enter ICAO airport designator
Station Type Date Time Source
KLAX METAR 2022/12/04 05:53 UTC NOAA

KLAX 040553Z 25007KT 10SM FEW012 16/14 A3011 RMK AO2 SLP193 T01560144 10172 20156 53006


Station Type Date Time Source
KLAX Decoded METAR 2022/12/04 05:53 UTC NOAA

LOS ANGELES INTERNTL AIRPORT, CA, United States (KLAX) 33-56N 118-23W 46M
Dec 04, 2022 - 12:53 AM EST / 2022.12.04 0553 UTC
Wind: from the WSW (250 degrees) at 8 MPH (7 KT):0
Visibility: 10 mile(s):0
Sky conditions: mostly clear
Temperature: 60.1 F (15.6 C)
Dew Point: 57.9 F (14.4 C)
Relative Humidity: 92%
Pressure (altimeter): 30.11 in. Hg (1019 hPa)
Pressure tendency: 0.02 inches (0.6 hPa) higher than three hours ago
ob: KLAX 040553Z 25007KT 10SM FEW012 16/14 A3011 RMK AO2 SLP193 T01560144 10172 20156 53006
cycle: 6

Station Type Date Time Source
KLAX TAF 2022/12/04 06:42 UTC NOAA

TAF KLAX 040540Z 0406/0512 25008KT P6SM FEW015 SCT050
FM040900 VRB03KT P6SM BKN050
FM041600 08006KT P6SM -SHRA BKN025 OVC050
FM042000 24006KT P6SM -SHRA BKN025 OVC050
FM042300 24006KT P6SM BKN030
FM050600 VRB03KT P6SM SCT050

Example: see airport list